createdAt,value
2022-11-20T00:02:33.565Z,76.29
2022-11-20T00:24:19.455Z,76.06
2022-11-20T00:46:07.961Z,76.52
2022-11-20T01:07:53.757Z,76.86
2022-11-20T01:29:39.472Z,76.65
2022-11-20T01:51:31.039Z,76.21
2022-11-20T02:13:35.010Z,76.32
2022-11-20T02:35:43.712Z,76.53
2022-11-20T02:57:29.709Z,76.17
2022-11-20T03:19:14.969Z,76.09
2022-11-20T03:41:04.829Z,76.42
2022-11-20T04:02:51.374Z,77.02
2022-11-20T04:24:37.213Z,76.78
2022-11-20T04:46:26.368Z,75.45
2022-11-20T05:08:12.345Z,75.79
2022-11-20T05:29:56.791Z,76.70
2022-11-20T05:51:43.174Z,76.45
2022-11-20T06:13:28.933Z,76.49
2022-11-20T06:35:18.024Z,76.39
2022-11-20T06:57:03.776Z,76.97
2022-11-20T07:18:51.225Z,77.27
2022-11-20T07:40:37.172Z,77.04
2022-11-20T08:02:22.945Z,74.60
2022-11-20T08:24:10.443Z,74.71
2022-11-20T08:45:58.539Z,74.89
2022-11-20T09:07:44.525Z,73.90
2022-11-20T09:29:28.910Z,72.15
2022-11-20T09:51:26.163Z,64.43
2022-11-20T10:13:25.594Z,48.93
2022-11-20T10:35:24.095Z,43.79
2022-11-20T10:57:20.132Z,48.90
2022-11-20T11:19:15.795Z,52.23
2022-11-20T11:41:00.459Z,54.80
2022-11-20T12:02:59.371Z,55.61
2022-11-20T12:24:57.528Z,57.71
2022-11-20T12:46:48.503Z,58.91
2022-11-20T13:08:38.367Z,59.91
2022-11-20T13:30:27.986Z,60.31
2022-11-20T13:52:41.852Z,60.04
2022-11-20T14:14:29.084Z,59.90
2022-11-20T14:41:33.767Z,61.49
2022-11-20T15:03:20.090Z,62.84
2022-11-20T15:25:13.572Z,64.47
2022-11-20T15:46:59.429Z,65.37
2022-11-20T16:08:45.920Z,66.71
2022-11-20T16:30:33.329Z,68.33
2022-11-20T16:52:19.180Z,69.68
2022-11-20T17:14:07.507Z,69.61
2022-11-20T17:35:56.690Z,70.69
2022-11-20T17:57:56.869Z,71.98
2022-11-20T18:20:00.960Z,72.01
2022-11-20T18:42:09.161Z,72.35
2022-11-20T19:03:55.071Z,73.04
2022-11-20T19:25:40.885Z,73.49
2022-11-20T19:47:46.051Z,74.50
2022-11-20T20:09:34.466Z,75.83
2022-11-20T20:31:22.622Z,75.56
2022-11-20T20:53:08.805Z,75.26
2022-11-20T21:14:53.039Z,75.57
2022-11-20T21:36:39.236Z,75.55
2022-11-20T21:58:25.114Z,75.83
2022-11-20T22:20:13.345Z,76.25
2022-11-20T22:41:59.119Z,76.42
2022-11-20T23:03:47.394Z,76.28
2022-11-20T23:25:33.321Z,77.16
2022-11-20T23:47:19.100Z,76.79
